createdAt,value
2022-10-31T00:00:32.169Z,15.18
2022-10-31T00:02:59.143Z,15.35
2022-10-31T00:05:26.046Z,15.32
2022-10-31T00:07:53.872Z,14.70
2022-10-31T00:10:20.517Z,13.48
2022-10-31T00:12:47.164Z,13.73
2022-10-31T00:15:13.874Z,13.05
2022-10-31T00:17:40.537Z,13.57
2022-10-31T00:20:07.753Z,14.95
2022-10-31T00:22:34.391Z,14.20
2022-10-31T00:25:01.222Z,13.35
2022-10-31T00:27:27.851Z,13.27
2022-10-31T00:29:55.370Z,13.73
2022-10-31T00:32:22.032Z,14.18
2022-10-31T00:34:48.688Z,13.45
2022-10-31T00:37:15.374Z,13.63
2022-10-31T00:39:46.034Z,15.18
2022-10-31T00:42:12.897Z,13.55
2022-10-31T00:44:43.222Z,12.82
2022-10-31T00:47:09.868Z,14.63
2022-10-31T00:49:36.957Z,15.02
2022-10-31T00:52:03.631Z,13.85
2022-10-31T00:54:31.799Z,15.07
2022-10-31T00:56:58.723Z,15.18
2022-10-31T00:59:25.418Z,15.43
2022-10-31T01:01:52.204Z,16.77
2022-10-31T01:04:19.013Z,16.27
2022-10-31T01:06:45.697Z,14.77
2022-10-31T01:09:12.376Z,13.82
2022-10-31T01:11:39.596Z,15.73
2022-10-31T01:14:09.614Z,13.95
2022-10-31T01:16:36.331Z,15.07
2022-10-31T01:19:03.202Z,14.43
2022-10-31T01:21:30.570Z,15.40
2022-10-31T01:24:02.923Z,14.85
2022-10-31T01:26:34.146Z,15.38
2022-10-31T01:29:06.385Z,14.55
2022-10-31T01:31:35.900Z,14.98
2022-10-31T01:34:03.903Z,14.60
2022-10-31T01:36:33.566Z,13.98
2022-10-31T01:39:08.872Z,13.63
2022-10-31T01:41:39.868Z,14.75
2022-10-31T01:44:17.375Z,14.32
2022-10-31T01:46:51.334Z,14.27
2022-10-31T01:49:24.617Z,13.07
2022-10-31T01:52:04.974Z,13.68
2022-10-31T01:54:36.875Z,13.07
2022-10-31T01:57:06.050Z,13.40
2022-10-31T01:59:36.462Z,12.70
2022-10-31T02:02:03.485Z,13.77
2022-10-31T02:04:30.584Z,13.63
2022-10-31T02:07:15.906Z,13.55
2022-10-31T02:09:44.123Z,12.63
2022-10-31T02:12:11.691Z,13.20
2022-10-31T02:14:39.354Z,11.88
2022-10-31T02:17:06.040Z,13.30
2022-10-31T02:19:57.704Z,11.63
2022-10-31T02:23:01.805Z,12.60
2022-10-31T02:25:52.977Z,10.75
2022-10-31T02:28:42.850Z,11.13
2022-10-31T02:31:26.344Z,11.75
2022-10-31T02:34:09.433Z,12.52
2022-10-31T02:36:45.627Z,10.23
2022-10-31T02:39:25.085Z,10.82
2022-10-31T02:42:09.954Z,8.90
2022-10-31T02:45:01.336Z,9.80
2022-10-31T02:47:30.965Z,9.93
2022-10-31T02:50:03.591Z,10.35
2022-10-31T02:55:24.005Z,10.30
2022-10-31T02:57:58.102Z,9.48
2022-10-31T03:00:27.681Z,10.90
2022-10-31T03:03:20.446Z,11.18
2022-10-31T03:05:53.019Z,11.60
2022-10-31T03:10:57.170Z,8.85
2022-10-31T03:13:41.840Z,9.48
2022-10-31T03:16:15.116Z,9.70
2022-10-31T03:18:56.734Z,11.27
2022-10-31T03:21:48.032Z,10.75
2022-10-31T03:24:16.907Z,9.73
2022-10-31T03:26:47.732Z,9.30
2022-10-31T03:29:19.514Z,9.88
2022-10-31T03:31:51.123Z,8.82
2022-10-31T03:34:20.164Z,8.67
2022-10-31T03:36:52.036Z,8.63
2022-10-31T03:39:21.633Z,8.65
2022-10-31T03:42:06.962Z,7.90
2022-10-31T03:44:35.516Z,8.32
2022-10-31T03:47:05.172Z,7.78
2022-10-31T03:49:33.469Z,8.18
2022-10-31T03:52:14.561Z,7.13
2022-10-31T03:54:46.749Z,6.93
2022-10-31T03:57:38.718Z,6.47
2022-10-31T04:00:12.421Z,4.60
2022-10-31T04:03:15.057Z,3.90
2022-10-31T04:05:48.120Z,3.47
2022-10-31T04:08:20.825Z,3.67
2022-10-31T04:10:50.005Z,3.05
2022-10-31T04:13:26.852Z,2.85
2022-10-31T04:16:02.353Z,2.63
2022-10-31T04:18:29.573Z,2.85
2022-10-31T04:21:07.830Z,3.40
2022-10-31T04:23:36.015Z,3.50
2022-10-31T04:26:13.444Z,3.72
2022-10-31T04:28:40.180Z,2.92
2022-10-31T04:31:07.340Z,2.60
2022-10-31T04:33:37.482Z,2.97
2022-10-31T04:36:07.997Z,3.40
2022-10-31T04:38:35.173Z,2.60
2022-10-31T04:41:05.898Z,3.47
2022-10-31T04:43:47.506Z,3.25
2022-10-31T04:46:14.455Z,4.05
2022-10-31T04:48:41.250Z,3.42
2022-10-31T04:51:08.221Z,3.67
2022-10-31T04:53:35.186Z,3.40
2022-10-31T04:56:24.957Z,3.58
2022-10-31T04:58:57.683Z,3.33
2022-10-31T05:01:25.896Z,3.70
2022-10-31T05:03:52.598Z,4.03
2022-10-31T05:06:19.515Z,3.88
2022-10-31T05:08:46.742Z,3.72
2022-10-31T05:11:15.451Z,4.00
2022-10-31T05:13:44.017Z,6.93
2022-10-31T05:16:13.322Z,7.95
2022-10-31T05:19:03.030Z,7.53
2022-10-31T05:21:48.373Z,8.98
2022-10-31T05:24:15.121Z,10.38
2022-10-31T05:26:47.311Z,10.77
2022-10-31T05:29:14.233Z,11.90
2022-10-31T05:31:41.202Z,12.13
2022-10-31T05:34:14.897Z,10.85
2022-10-31T05:37:13.449Z,11.40
2022-10-31T05:39:40.125Z,10.88
2022-10-31T05:44:40.318Z,10.23
2022-10-31T05:47:33.097Z,8.80
2022-10-31T05:50:38.077Z,10.55
2022-10-31T05:53:12.257Z,10.45
2022-10-31T05:55:41.664Z,9.13
2022-10-31T05:58:13.875Z,8.23
2022-10-31T06:00:46.591Z,9.10
2022-10-31T06:03:13.433Z,7.85
2022-10-31T06:05:55.265Z,7.25
2022-10-31T06:08:25.189Z,7.80
2022-10-31T06:10:54.069Z,6.50
2022-10-31T06:13:29.131Z,6.63
2022-10-31T06:16:01.546Z,6.88
2022-10-31T06:18:34.950Z,6.82
2022-10-31T06:21:01.772Z,5.63
2022-10-31T06:23:28.982Z,6.38
2022-10-31T06:26:15.793Z,7.13
2022-10-31T06:28:42.798Z,7.60
2022-10-31T06:31:17.844Z,7.38
2022-10-31T06:33:44.879Z,8.68
2022-10-31T06:36:11.653Z,7.72
2022-10-31T06:38:38.401Z,9.43
2022-10-31T06:41:08.336Z,8.88
2022-10-31T06:43:41.966Z,9.07
2022-10-31T06:46:26.673Z,9.13
2022-10-31T06:49:08.473Z,8.70
2022-10-31T06:51:52.097Z,8.00
2022-10-31T06:54:18.934Z,8.43
2022-10-31T06:56:48.508Z,8.07
2022-10-31T06:59:16.062Z,7.40
2022-10-31T07:02:12.728Z,7.68
2022-10-31T07:04:42.104Z,8.65
2022-10-31T07:07:10.981Z,7.72
2022-10-31T07:09:38.513Z,8.05
2022-10-31T07:12:05.892Z,8.77
2022-10-31T07:14:36.728Z,8.57
2022-10-31T07:17:03.425Z,8.55
2022-10-31T07:19:37.237Z,9.05
2022-10-31T07:22:03.959Z,9.27
2022-10-31T07:24:31.629Z,9.30
2022-10-31T07:29:29.952Z,9.00
2022-10-31T07:31:56.846Z,10.60
2022-10-31T07:34:27.343Z,10.68
2022-10-31T07:36:56.725Z,11.15
2022-10-31T07:39:23.465Z,11.88
2022-10-31T07:41:50.405Z,12.32
2022-10-31T07:44:19.485Z,12.20
2022-10-31T07:47:04.384Z,12.05
2022-10-31T07:49:51.014Z,13.10
2022-10-31T07:52:36.809Z,14.90
2022-10-31T07:55:25.273Z,16.95
2022-10-31T07:58:02.235Z,15.82
2022-10-31T08:00:30.384Z,16.67
2022-10-31T08:03:04.283Z,16.33
2022-10-31T08:06:00.068Z,16.25
2022-10-31T08:08:41.642Z,16.08
2022-10-31T08:11:09.550Z,16.65
2022-10-31T08:13:36.231Z,16.73
2022-10-31T08:16:05.200Z,15.48
2022-10-31T08:18:35.329Z,16.85
2022-10-31T08:21:04.150Z,16.27
2022-10-31T08:23:30.798Z,17.05
2022-10-31T08:25:58.516Z,16.40
2022-10-31T08:28:25.352Z,16.52
2022-10-31T08:30:54.069Z,16.63
2022-10-31T08:33:43.822Z,17.05
2022-10-31T08:36:19.849Z,17.70
2022-10-31T08:39:06.802Z,19.05
2022-10-31T08:41:34.098Z,17.65
2022-10-31T08:44:01.406Z,18.25
2022-10-31T08:46:28.072Z,18.55
2022-10-31T08:48:55.181Z,19.20
2022-10-31T08:51:23.295Z,17.48
2022-10-31T08:53:53.223Z,19.13
2022-10-31T08:56:38.566Z,19.45
2022-10-31T08:59:16.137Z,18.98
2022-10-31T09:02:06.461Z,19.48
2022-10-31T09:04:34.308Z,18.48
2022-10-31T09:07:20.129Z,19.05
2022-10-31T09:09:49.905Z,21.17
2022-10-31T09:12:18.653Z,19.80
2022-10-31T09:15:17.558Z,19.80
2022-10-31T09:17:49.057Z,20.75
2022-10-31T09:20:23.057Z,18.48
2022-10-31T09:23:01.472Z,19.25
2022-10-31T09:25:30.514Z,19.67
2022-10-31T09:28:29.491Z,18.30
2022-10-31T09:31:01.217Z,18.33
2022-10-31T09:33:47.872Z,18.65
2022-10-31T09:36:34.498Z,17.58
2022-10-31T09:39:01.177Z,18.08
2022-10-31T09:42:04.871Z,19.08
2022-10-31T09:44:51.310Z,17.02
2022-10-31T09:47:49.373Z,16.50
2022-10-31T09:50:49.124Z,17.48
2022-10-31T09:53:43.769Z,17.25
2022-10-31T09:56:16.052Z,16.77
2022-10-31T09:58:48.672Z,17.38
2022-10-31T10:03:52.914Z,17.00
2022-10-31T10:06:43.735Z,17.25
2022-10-31T10:09:29.871Z,17.75
2022-10-31T10:12:21.312Z,17.25
2022-10-31T10:15:17.294Z,15.88
2022-10-31T10:17:55.117Z,15.55
2022-10-31T10:20:31.852Z,14.60
2022-10-31T10:23:17.525Z,15.52
2022-10-31T10:25:50.925Z,15.07
2022-10-31T10:28:28.675Z,15.55
2022-10-31T10:31:10.690Z,16.95
2022-10-31T10:33:45.716Z,16.58
2022-10-31T10:36:20.582Z,15.23
2022-10-31T10:38:53.006Z,15.82
2022-10-31T10:41:23.455Z,15.82
2022-10-31T10:43:51.834Z,12.88
2022-10-31T10:46:37.228Z,13.60
2022-10-31T10:49:22.643Z,13.48
2022-10-31T10:52:19.278Z,12.77
2022-10-31T10:55:07.017Z,12.15
2022-10-31T10:57:57.394Z,11.10
2022-10-31T11:00:28.241Z,9.85
2022-10-31T11:02:55.883Z,11.38
2022-10-31T11:05:25.103Z,10.65
2022-10-31T11:07:52.033Z,10.88
2022-10-31T11:10:18.814Z,11.40
2022-10-31T11:13:02.116Z,11.80
2022-10-31T11:15:31.794Z,11.82
2022-10-31T11:17:58.806Z,11.18
2022-10-31T11:20:35.555Z,11.73
2022-10-31T11:23:19.426Z,10.70
2022-10-31T11:28:26.400Z,11.07
2022-10-31T11:30:59.364Z,11.18
2022-10-31T11:33:37.502Z,8.85
2022-10-31T11:36:21.864Z,10.85
2022-10-31T11:38:49.737Z,11.02
2022-10-31T11:41:24.563Z,10.93
2022-10-31T11:44:03.856Z,9.88
2022-10-31T11:46:52.258Z,9.90
2022-10-31T11:49:24.094Z,9.80
2022-10-31T11:51:54.978Z,9.75
2022-10-31T11:54:31.574Z,8.85
2022-10-31T11:57:01.169Z,8.43
2022-10-31T11:59:30.187Z,9.10
2022-10-31T12:01:59.979Z,8.07
2022-10-31T12:04:35.861Z,8.27
2022-10-31T12:07:02.745Z,9.70
2022-10-31T12:09:33.695Z,8.60
2022-10-31T12:12:12.646Z,8.88
2022-10-31T12:14:59.346Z,9.40
2022-10-31T12:17:45.111Z,8.10
2022-10-31T12:20:21.704Z,8.38
2022-10-31T12:23:20.547Z,7.50
2022-10-31T12:26:26.167Z,8.27
2022-10-31T12:29:30.109Z,7.88
2022-10-31T12:32:25.343Z,6.82
2022-10-31T12:35:10.436Z,6.97
2022-10-31T12:37:49.247Z,5.85
2022-10-31T12:40:57.197Z,5.70
2022-10-31T12:43:35.595Z,5.78
2022-10-31T12:46:06.026Z,6.10
2022-10-31T12:48:57.253Z,6.78
2022-10-31T12:52:04.207Z,6.80
2022-10-31T12:54:48.751Z,6.82
2022-10-31T12:57:32.368Z,6.80
2022-10-31T13:00:11.482Z,6.40
2022-10-31T13:02:41.693Z,6.32
2022-10-31T13:05:25.939Z,6.53
2022-10-31T13:07:58.868Z,8.10
2022-10-31T13:10:32.886Z,8.40
2022-10-31T13:13:07.804Z,10.75
2022-10-31T13:15:42.061Z,9.40
2022-10-31T13:18:23.931Z,9.65
2022-10-31T13:20:55.539Z,9.03
2022-10-31T13:29:14.594Z,9.23
2022-10-31T13:31:42.727Z,9.65
2022-10-31T13:34:24.766Z,8.60
2022-10-31T13:37:28.904Z,9.80
2022-10-31T13:40:08.006Z,9.32
2022-10-31T13:43:03.730Z,8.10
2022-10-31T13:45:30.581Z,8.43
2022-10-31T13:47:57.457Z,7.55
2022-10-31T13:50:32.486Z,7.38
2022-10-31T13:53:23.829Z,8.65
2022-10-31T13:56:03.939Z,7.65
2022-10-31T13:58:32.382Z,7.22
2022-10-31T14:01:25.810Z,9.02
2022-10-31T14:04:13.967Z,8.07
2022-10-31T14:06:52.084Z,8.70
2022-10-31T14:09:36.991Z,10.75
2022-10-31T14:12:22.221Z,8.60
2022-10-31T14:14:52.206Z,9.25
2022-10-31T14:17:26.216Z,7.95
2022-10-31T14:20:23.278Z,9.68
2022-10-31T14:22:50.238Z,8.50
2022-10-31T14:25:31.980Z,8.57
2022-10-31T14:28:00.501Z,9.50
2022-10-31T14:30:29.651Z,8.77
2022-10-31T14:33:20.310Z,8.77
2022-10-31T14:36:11.976Z,9.55
2022-10-31T14:39:00.910Z,9.90
2022-10-31T14:41:53.416Z,9.98
2022-10-31T14:44:57.494Z,10.30
2022-10-31T14:48:06.889Z,11.02
2022-10-31T14:50:50.947Z,10.52
2022-10-31T14:56:10.002Z,10.77
2022-10-31T14:58:41.585Z,10.70
2022-10-31T15:01:08.618Z,12.03
2022-10-31T15:03:44.559Z,12.13
2022-10-31T15:06:23.463Z,11.25
2022-10-31T15:08:52.566Z,11.80
2022-10-31T15:11:25.587Z,11.55
2022-10-31T15:13:57.582Z,12.25
2022-10-31T15:16:27.943Z,12.68
2022-10-31T15:18:56.933Z,11.30
2022-10-31T15:21:25.665Z,11.48
2022-10-31T15:23:54.886Z,11.23
2022-10-31T15:26:24.849Z,12.60
2022-10-31T15:29:02.835Z,13.05
2022-10-31T15:31:31.823Z,13.85
2022-10-31T15:34:12.841Z,17.02
2022-10-31T15:36:40.115Z,21.20
2022-10-31T15:39:10.244Z,14.75
2022-10-31T15:41:54.850Z,12.25
2022-10-31T15:44:42.095Z,11.73
2022-10-31T15:47:17.899Z,10.00
2022-10-31T15:49:55.634Z,10.43
2022-10-31T15:52:45.212Z,9.80
2022-10-31T15:55:23.984Z,9.68
2022-10-31T15:57:59.861Z,10.90
2022-10-31T16:00:34.103Z,10.82
2022-10-31T16:03:05.155Z,10.00
2022-10-31T16:05:59.773Z,11.07
2022-10-31T16:08:32.173Z,11.02
2022-10-31T16:11:08.728Z,11.70
2022-10-31T16:13:38.703Z,12.02
2022-10-31T16:16:43.001Z,12.60
2022-10-31T16:19:01.990Z,11.57
2022-10-31T16:21:35.729Z,10.90
2022-10-31T16:24:06.759Z,12.13
2022-10-31T16:26:34.036Z,12.68
2022-10-31T16:29:05.806Z,11.82
2022-10-31T16:31:40.329Z,12.75
2022-10-31T16:34:06.942Z,13.48
2022-10-31T16:36:39.281Z,14.20
2022-10-31T16:39:06.381Z,13.85
2022-10-31T16:41:36.880Z,20.27
2022-10-31T16:44:07.549Z,15.57
2022-10-31T16:46:34.186Z,14.45
2022-10-31T16:49:00.850Z,14.23
2022-10-31T16:51:27.473Z,14.45
2022-10-31T16:53:54.395Z,14.65
2022-10-31T16:56:29.285Z,14.60
2022-10-31T16:58:56.015Z,14.32
2022-10-31T17:01:22.935Z,12.80
2022-10-31T17:03:49.702Z,13.82
2022-10-31T17:06:16.593Z,14.02
2022-10-31T17:08:43.322Z,14.75
2022-10-31T17:11:19.701Z,13.45
2022-10-31T17:13:46.527Z,14.77
2022-10-31T17:16:15.121Z,13.23
2022-10-31T17:18:43.694Z,14.07
2022-10-31T17:21:23.047Z,13.43
2022-10-31T17:23:50.714Z,13.02
2022-10-31T17:26:17.762Z,12.65
2022-10-31T17:28:44.485Z,13.95
2022-10-31T17:31:21.834Z,13.18
2022-10-31T17:33:48.721Z,13.70
2022-10-31T17:36:15.433Z,13.68
2022-10-31T17:38:42.112Z,13.77
2022-10-31T17:41:11.284Z,12.35
2022-10-31T17:43:38.571Z,13.77
2022-10-31T17:46:05.945Z,13.10
2022-10-31T17:48:34.960Z,12.88
2022-10-31T17:51:05.671Z,13.40
2022-10-31T17:53:34.468Z,13.70
2022-10-31T17:56:03.969Z,13.55
2022-10-31T17:58:30.977Z,12.98
2022-10-31T18:00:58.987Z,14.13
2022-10-31T18:03:26.729Z,13.23
2022-10-31T18:05:59.090Z,13.60
2022-10-31T18:08:27.669Z,12.68
2022-10-31T18:10:55.365Z,13.15
2022-10-31T18:13:22.969Z,13.18
2022-10-31T18:15:49.742Z,13.45
2022-10-31T18:18:16.518Z,13.32
2022-10-31T18:20:43.565Z,12.85
2022-10-31T18:23:10.228Z,12.05
2022-10-31T18:25:38.847Z,13.30
2022-10-31T18:28:07.328Z,13.88
2022-10-31T18:30:34.393Z,13.65
2022-10-31T18:33:03.844Z,14.50
2022-10-31T18:35:30.599Z,13.05
2022-10-31T18:37:59.332Z,13.55
2022-10-31T18:40:29.294Z,13.57
2022-10-31T18:42:55.905Z,13.30
2022-10-31T18:45:33.917Z,14.48
2022-10-31T18:48:14.167Z,13.02
2022-10-31T18:50:41.150Z,13.10
2022-10-31T18:53:08.189Z,12.60
2022-10-31T18:55:38.809Z,12.80
2022-10-31T18:58:05.487Z,13.35
2022-10-31T19:00:32.227Z,13.02
2022-10-31T19:02:59.221Z,13.30
2022-10-31T19:05:26.112Z,12.80
2022-10-31T19:07:52.814Z,13.00
2022-10-31T19:10:19.471Z,11.80
2022-10-31T19:12:46.088Z,12.93
2022-10-31T19:15:12.722Z,11.75
2022-10-31T19:17:39.370Z,12.18
2022-10-31T19:20:06.694Z,13.05
2022-10-31T19:22:33.370Z,12.77
2022-10-31T19:25:00.091Z,12.00
2022-10-31T19:27:28.056Z,14.02
2022-10-31T19:29:54.742Z,13.43
2022-10-31T19:32:21.393Z,12.57
2022-10-31T19:34:48.025Z,12.48
2022-10-31T19:37:14.687Z,13.13
2022-10-31T19:39:44.356Z,13.23
2022-10-31T19:42:11.312Z,13.77
2022-10-31T19:44:37.972Z,13.63
2022-10-31T19:47:04.785Z,14.38
2022-10-31T19:49:31.531Z,13.30
2022-10-31T19:51:58.271Z,14.10
2022-10-31T19:54:25.010Z,14.65
2022-10-31T19:56:51.674Z,13.80
2022-10-31T19:59:18.345Z,15.15
2022-10-31T20:01:45.078Z,12.90
2022-10-31T20:04:11.922Z,13.95
2022-10-31T20:06:40.580Z,13.85
2022-10-31T20:09:10.325Z,14.75
2022-10-31T20:11:38.694Z,13.52
2022-10-31T20:14:06.267Z,15.13
2022-10-31T20:16:34.754Z,12.98
2022-10-31T20:19:01.538Z,14.25
2022-10-31T20:21:30.846Z,14.65
2022-10-31T20:24:02.966Z,15.00
2022-10-31T20:26:30.899Z,14.30
2022-10-31T20:28:59.266Z,14.63
2022-10-31T20:31:28.727Z,13.52
2022-10-31T20:33:55.778Z,15.00
2022-10-31T20:36:23.335Z,15.32
2022-10-31T20:38:52.604Z,14.55
2022-10-31T20:41:19.939Z,14.65
2022-10-31T20:43:47.114Z,15.68
2022-10-31T20:46:19.601Z,15.07
2022-10-31T20:51:19.355Z,14.35
2022-10-31T20:53:46.044Z,13.88
2022-10-31T20:56:15.279Z,14.65
2022-10-31T20:58:42.889Z,13.90
2022-10-31T21:01:19.069Z,13.85
2022-10-31T21:03:46.420Z,13.45
2022-10-31T21:06:13.695Z,14.77
2022-10-31T21:08:41.602Z,13.60
2022-10-31T21:11:11.193Z,13.43
2022-10-31T21:13:42.313Z,13.15
2022-10-31T21:16:17.303Z,13.18
2022-10-31T21:18:45.348Z,13.25
2022-10-31T21:21:18.807Z,13.75
2022-10-31T21:23:45.564Z,13.00
2022-10-31T21:26:15.683Z,12.93
2022-10-31T21:28:42.505Z,13.93
2022-10-31T21:31:13.168Z,12.68
2022-10-31T21:33:40.785Z,14.13
2022-10-31T21:36:08.293Z,13.27
2022-10-31T21:38:36.061Z,12.13
2022-10-31T21:41:05.587Z,14.23
2022-10-31T21:43:34.731Z,12.55
2022-10-31T21:46:13.302Z,13.73
2022-10-31T21:48:42.114Z,13.07
2022-10-31T21:51:11.368Z,11.40
2022-10-31T21:53:57.090Z,13.73
2022-10-31T21:56:23.937Z,13.25
2022-10-31T21:58:51.329Z,13.43
2022-10-31T22:01:18.265Z,12.45
2022-10-31T22:03:45.617Z,12.30
2022-10-31T22:06:13.010Z,12.63
2022-10-31T22:08:40.654Z,13.05
2022-10-31T22:11:11.066Z,12.88
2022-10-31T22:13:37.821Z,12.65
2022-10-31T22:16:06.925Z,13.68
2022-10-31T22:18:34.410Z,12.82
2022-10-31T22:21:06.182Z,13.00
2022-10-31T22:23:33.453Z,13.35
2022-10-31T22:26:05.307Z,13.30
2022-10-31T22:28:33.085Z,12.13
2022-10-31T22:31:04.617Z,12.80
2022-10-31T22:33:31.537Z,12.30
2022-10-31T22:36:06.493Z,11.82
2022-10-31T22:38:34.442Z,12.80
2022-10-31T22:41:01.873Z,12.98
2022-10-31T22:43:28.496Z,12.63
2022-10-31T22:46:00.274Z,10.52
2022-10-31T22:48:27.805Z,12.73
2022-10-31T22:50:54.686Z,13.75
2022-10-31T22:53:21.546Z,12.73
2022-10-31T22:55:51.096Z,11.45
2022-10-31T22:58:17.746Z,12.32
2022-10-31T23:00:44.462Z,11.60
2022-10-31T23:03:11.209Z,11.27
2022-10-31T23:05:37.823Z,11.13
2022-10-31T23:08:05.140Z,10.90
2022-10-31T23:10:33.692Z,10.98
2022-10-31T23:13:19.755Z,11.98
2022-10-31T23:15:46.391Z,10.65
2022-10-31T23:18:19.056Z,10.00
2022-10-31T23:20:59.669Z,10.15
2022-10-31T23:23:26.324Z,11.25
2022-10-31T23:26:11.545Z,10.38
2022-10-31T23:28:38.198Z,10.68
2022-10-31T23:31:05.049Z,10.68
2022-10-31T23:33:31.712Z,11.25
2022-10-31T23:35:58.415Z,10.35
2022-10-31T23:38:25.116Z,9.82
2022-10-31T23:40:51.799Z,9.63
2022-10-31T23:43:18.574Z,9.95
2022-10-31T23:45:45.677Z,9.80
2022-10-31T23:48:12.283Z,11.00
2022-10-31T23:50:38.929Z,10.52
2022-10-31T23:53:05.583Z,11.10
2022-10-31T23:55:32.246Z,11.02
2022-10-31T23:57:58.948Z,10.95
